Time;durP1;ratioP1;P1;durP2;ratioP2;P2;SDS_P1;SDS_P2;PMS_P1;PMS_P2;Temp;Humidity;BMP_temperature;BMP_pressure;BME280_temperature;BME280_humidity;BME280_pressure;Samples;Min_cycle;Max_cycle;Signal;HPM_P1;HPM_P2
2021/09/29 00:02:19;;;;;;;;;;;14.20;99.90;;;;;;5017157;28;25067;-72
2021/09/29 00:05:09;;;;;;;;;;;14.20;99.90;;;;;;5013803;28;25061;-74
2021/09/29 00:07:58;;;;;;;;;;;14.20;99.90;;;;;;5025054;28;25076;-74
2021/09/29 00:10:49;;;;;;;;;;;14.20;99.90;;;;;;5014266;28;25100;-73
2021/09/29 00:13:44;;;;;;;;;;;14.20;99.90;;;;;;5017108;28;25058;-74
2021/09/29 00:16:33;;;;;;;;;;;14.20;99.90;;;;;;5016389;28;25067;-73
2021/09/29 00:19:22;;;;;;;;;;;14.20;99.90;;;;;;5014434;28;25120;-73
2021/09/29 00:22:12;;;;;;;;;;;14.20;99.90;;;;;;5010978;28;25094;-73
2021/09/29 00:25:01;;;;;;;;;;;14.20;99.90;;;;;;5014375;28;25066;-72
2021/09/29 00:27:51;;;;;;;;;;;14.20;99.90;;;;;;5027767;28;25136;-73
2021/09/29 00:30:50;;;;;;;;;;;14.20;99.90;;;;;;5015512;28;25074;-74
2021/09/29 00:33:46;;;;;;;;;;;14.20;99.90;;;;;;5015110;28;25125;-75
2021/09/29 00:36:35;;;;;;;;;;;14.20;99.90;;;;;;5015507;28;25077;-72
2021/09/29 00:39:24;;;;;;;;;;;14.20;99.90;;;;;;5013457;28;25078;-73
2021/09/29 00:42:13;;;;;;;;;;;14.20;99.90;;;;;;4988269;28;25051;-74
2021/09/29 00:45:03;;;;;;;;;;;14.20;99.90;;;;;;4977060;28;25101;-75
2021/09/29 00:47:54;;;;;;;;;;;14.30;99.90;;;;;;4976917;28;25129;-73
2021/09/29 00:50:44;;;;;;;;;;;14.30;99.90;;;;;;4976427;28;25103;-72
2021/09/29 00:53:33;;;;;;;;;;;14.30;99.90;;;;;;4974121;28;25078;-73
2021/09/29 00:56:22;;;;;;;;;;;14.30;99.90;;;;;;4974877;28;25068;-74
2021/09/29 00:59:11;;;;;;;;;;;14.20;99.90;;;;;;4971643;28;25091;-74
2021/09/29 01:02:01;;;;;;;;;;;14.20;99.90;;;;;;4974600;28;25055;-74
2021/09/29 01:04:50;;;;;;;;;;;14.20;99.90;;;;;;4975940;28;25061;-75
2021/09/29 01:07:44;;;;;;;;;;;14.20;99.90;;;;;;4971893;28;25070;-73
2021/09/29 01:10:38;;;;;;;;;;;14.20;99.90;;;;;;4968252;28;25085;-73
2021/09/29 01:13:30;;;;;;;;;;;14.10;99.90;;;;;;4979225;28;25056;-73
2021/09/29 01:16:18;;;;;;;;;;;14.10;99.90;;;;;;4968120;28;25121;-74
2021/09/29 01:19:15;;;;;;;;;;;14.10;99.90;;;;;;4967005;28;25085;-74
2021/09/29 01:22:10;;;;;;;;;;;14.20;99.90;;;;;;4972503;28;25935;-74
2021/09/29 01:25:02;;;;;;;;;;;14.20;99.90;;;;;;4971673;28;25079;-74
2021/09/29 01:27:53;;;;;;;;;;;14.20;99.90;;;;;;4968296;28;25096;-72
2021/09/29 01:30:42;;;;;;;;;;;14.20;99.90;;;;;;4970299;28;25058;-75
2021/09/29 01:33:33;;;;;;;;;;;14.30;99.90;;;;;;4967410;28;25075;-73
2021/09/29 01:36:23;;;;;;;;;;;14.30;99.90;;;;;;4982265;28;25109;-74
2021/09/29 01:39:15;;;;;;;;;;;14.30;99.90;;;;;;4964846;28;25074;-73
2021/09/29 01:42:05;;;;;;;;;;;14.40;99.90;;;;;;4968085;28;25065;-74
2021/09/29 01:44:55;;;;;;;;;;;14.40;99.90;;;;;;4971603;28;25094;-73
2021/09/29 01:47:44;;;;;;;;;;;14.50;99.90;;;;;;4972640;28;25065;-74
2021/09/29 01:50:34;;;;;;;;;;;14.50;99.90;;;;;;4971291;28;25065;-73
2021/09/29 01:53:24;;;;;;;;;;;14.50;99.90;;;;;;4971785;28;25093;-73
2021/09/29 01:56:13;;;;;;;;;;;14.50;99.90;;;;;;4971906;28;25067;-74
2021/09/29 01:59:03;;;;;;;;;;;14.50;99.90;;;;;;4970341;28;25097;-73
2021/09/29 02:01:54;;;;;;;;;;;14.50;99.90;;;;;;4968827;28;25030;-73
2021/09/29 02:04:44;;;;;;;;;;;14.50;99.90;;;;;;4971968;28;25089;-74
2021/09/29 02:07:33;;;;;;;;;;;14.50;99.90;;;;;;4970117;28;25067;-74
2021/09/29 02:10:21;;;;;;;;;;;14.60;99.90;;;;;;4968776;28;25066;-74
2021/09/29 02:13:11;;;;;;;;;;;14.60;99.90;;;;;;4980830;28;25097;-74
2021/09/29 02:16:00;;;;;;;;;;;14.60;99.90;;;;;;4970197;28;25096;-73
2021/09/29 02:18:50;;;;;;;;;;;14.60;99.90;;;;;;4969245;28;20401;-74
2021/09/29 02:21:39;;;;;;;;;;;14.60;99.90;;;;;;4971439;28;25060;-74
2021/09/29 02:24:28;;;;;;;;;;;14.60;99.90;;;;;;4968861;28;25077;-73
2021/09/29 02:27:17;;;;;;;;;;;14.60;99.90;;;;;;4977756;28;20219;-73
2021/09/29 02:30:07;;;;;;;;;;;14.60;99.90;;;;;;4975302;28;25082;-73
2021/09/29 02:32:56;;;;;;;;;;;14.50;99.90;;;;;;4970094;28;25128;-73
2021/09/29 02:35:47;;;;;;;;;;;14.60;99.90;;;;;;4970980;28;25101;-74
2021/09/29 02:38:37;;;;;;;;;;;14.60;99.90;;;;;;4971402;28;25083;-73
2021/09/29 02:41:27;;;;;;;;;;;14.60;99.90;;;;;;5005182;28;20484;-73
2021/09/29 02:44:15;;;;;;;;;;;14.50;99.90;;;;;;5012079;28;25088;-73
2021/09/29 02:47:04;;;;;;;;;;;14.50;99.90;;;;;;5011937;28;25227;-72
2021/09/29 02:49:53;;;;;;;;;;;14.50;99.90;;;;;;5011158;28;25110;-73
2021/09/29 02:53:09;;;;;;;;;;;14.50;99.90;;;;;;5012674;28;20373;-73
2021/09/29 02:55:58;;;;;;;;;;;14.50;99.90;;;;;;5006775;28;25093;-73
2021/09/29 02:58:49;;;;;;;;;;;14.40;99.90;;;;;;5012690;28;25151;-73
2021/09/29 03:01:38;;;;;;;;;;;14.40;99.90;;;;;;5023728;28;25093;-73
2021/09/29 03:04:27;;;;;;;;;;;14.40;99.90;;;;;;5008762;28;20502;-73
2021/09/29 03:07:16;;;;;;;;;;;14.40;99.90;;;;;;5013967;28;20412;-74
2021/09/29 03:10:07;;;;;;;;;;;14.40;99.90;;;;;;5014173;28;20420;-73
2021/09/29 03:12:56;;;;;;;;;;;14.40;99.90;;;;;;5010204;28;20443;-74
2021/09/29 03:15:45;;;;;;;;;;;14.40;99.90;;;;;;5015446;28;25110;-75
2021/09/29 03:18:34;;;;;;;;;;;14.40;99.90;;;;;;5012122;28;20804;-74
2021/09/29 03:21:23;;;;;;;;;;;14.30;99.90;;;;;;5013611;28;25107;-73
2021/09/29 03:24:18;;;;;;;;;;;14.40;99.90;;;;;;5012280;28;20446;-72
2021/09/29 03:27:09;;;;;;;;;;;14.40;99.90;;;;;;5014372;28;25087;-72
2021/09/29 03:29:58;;;;;;;;;;;14.40;99.90;;;;;;5013853;28;25112;-73
2021/09/29 03:32:47;;;;;;;;;;;14.40;99.90;;;;;;5012285;28;25168;-72
2021/09/29 03:35:36;;;;;;;;;;;14.40;99.90;;;;;;5015685;28;25061;-73
2021/09/29 03:38:26;;;;;;;;;;;14.50;99.90;;;;;;5020393;28;25085;-73
2021/09/29 03:41:15;;;;;;;;;;;14.50;99.90;;;;;;5011369;28;20421;-72
2021/09/29 03:44:07;;;;;;;;;;;14.50;99.90;;;;;;5015881;28;20400;-73
2021/09/29 03:46:56;;;;;;;;;;;14.50;99.90;;;;;;5010276;28;20391;-72
2021/09/29 03:49:46;;;;;;;;;;;14.50;99.90;;;;;;5010867;28;20399;-72
2021/09/29 03:52:35;;;;;;;;;;;14.40;99.90;;;;;;5008520;28;25099;-73
2021/09/29 03:55:24;;;;;;;;;;;14.50;99.90;;;;;;5013025;28;20402;-73
2021/09/29 03:58:13;;;;;;;;;;;14.40;99.90;;;;;;5012584;28;25078;-73
2021/09/29 04:01:03;;;;;;;;;;;14.50;99.90;;;;;;5013070;28;25089;-74
2021/09/29 04:03:55;;;;;;;;;;;14.50;99.90;;;;;;5009696;28;25103;-73
2021/09/29 04:06:43;;;;;;;;;;;14.50;99.90;;;;;;5007682;28;25103;-73
2021/09/29 04:09:34;;;;;;;;;;;14.50;99.90;;;;;;5010736;28;25140;-73
2021/09/29 04:12:23;;;;;;;;;;;14.50;99.90;;;;;;5012588;28;20380;-72
2021/09/29 04:15:12;;;;;;;;;;;14.50;99.90;;;;;;5011336;28;25109;-71
2021/09/29 04:18:03;;;;;;;;;;;14.40;99.90;;;;;;5007255;28;25087;-72
2021/09/29 04:20:52;;;;;;;;;;;14.40;99.90;;;;;;5012713;28;25131;-72
2021/09/29 04:23:41;;;;;;;;;;;14.40;99.90;;;;;;5009096;28;20400;-73
2021/09/29 04:26:33;;;;;;;;;;;14.40;99.90;;;;;;5009061;28;25094;-72
2021/09/29 04:29:23;;;;;;;;;;;14.40;99.90;;;;;;4998352;28;25086;-73
2021/09/29 04:32:12;;;;;;;;;;;14.40;99.90;;;;;;5012500;28;20887;-73
2021/09/29 04:35:03;;;;;;;;;;;14.40;99.90;;;;;;5013772;28;20427;-71
2021/09/29 04:37:53;;;;;;;;;;;14.40;99.90;;;;;;5022056;28;20405;-71
2021/09/29 04:40:41;;;;;;;;;;;14.40;99.90;;;;;;4990711;28;20448;-70
2021/09/29 04:43:30;;;;;;;;;;;14.40;99.90;;;;;;5008654;28;25103;-69
2021/09/29 04:46:23;;;;;;;;;;;14.40;99.90;;;;;;5004075;28;25103;-69
2021/09/29 04:49:12;;;;;;;;;;;14.50;99.90;;;;;;5008770;28;25122;-69
2021/09/29 04:52:26;;;;;;;;;;;14.50;99.90;;;;;;5008139;28;20462;-69
2021/09/29 04:55:15;;;;;;;;;;;14.50;99.90;;;;;;5010442;28;20411;-70
2021/09/29 04:58:05;;;;;;;;;;;14.50;99.90;;;;;;4999159;28;20734;-73
2021/09/29 05:00:54;;;;;;;;;;;14.60;99.90;;;;;;5007243;28;20431;-70
2021/09/29 05:03:44;;;;;;;;;;;14.60;99.90;;;;;;5008589;28;20415;-71
2021/09/29 05:09:53;;;;;;;;;;;14.60;99.90;;;;;;5016854;28;25128;-69
2021/09/29 05:12:42;;;;;;;;;;;14.60;99.90;;;;;;5010196;28;25156;-68
2021/09/29 05:15:30;;;;;;;;;;;14.60;99.90;;;;;;5009661;28;25076;-67
2021/09/29 05:18:19;;;;;;;;;;;14.50;99.90;;;;;;5010545;28;25061;-68
2021/09/29 05:21:11;;;;;;;;;;;14.50;99.90;;;;;;5009883;28;25071;-68
2021/09/29 05:24:00;;;;;;;;;;;14.50;99.90;;;;;;5010134;28;25074;-68
2021/09/29 05:26:50;;;;;;;;;;;14.50;99.90;;;;;;5012780;28;25085;-69
2021/09/29 05:29:41;;;;;;;;;;;14.50;99.90;;;;;;5010943;28;25067;-68
2021/09/29 05:32:32;;;;;;;;;;;14.50;99.90;;;;;;5011470;28;25061;-68
2021/09/29 05:35:21;;;;;;;;;;;14.60;99.90;;;;;;5006821;28;25134;-68
2021/09/29 05:38:10;;;;;;;;;;;14.60;99.90;;;;;;5011641;28;25092;-68
2021/09/29 05:40:59;;;;;;;;;;;14.50;99.90;;;;;;5010839;28;25166;-69
2021/09/29 05:43:49;;;;;;;;;;;14.60;99.90;;;;;;5013603;28;25132;-68
2021/09/29 05:46:38;;;;;;;;;;;14.50;99.90;;;;;;5010508;28;25110;-68
2021/09/29 05:49:27;;;;;;;;;;;14.60;99.90;;;;;;5013098;28;25145;-68
2021/09/29 05:52:16;;;;;;;;;;;14.60;99.90;;;;;;5009602;28;25065;-68
2021/09/29 05:55:05;;;;;;;;;;;14.60;99.90;;;;;;5009397;28;25070;-68
2021/09/29 05:57:54;;;;;;;;;;;14.60;99.90;;;;;;5012488;28;25128;-69
2021/09/29 06:00:44;;;;;;;;;;;14.60;99.90;;;;;;5010709;28;25089;-69
2021/09/29 06:03:34;;;;;;;;;;;14.60;99.90;;;;;;5013210;28;25122;-70
2021/09/29 06:06:22;;;;;;;;;;;14.60;99.90;;;;;;5014245;28;25096;-68
2021/09/29 06:09:11;;;;;;;;;;;14.60;99.90;;;;;;5009590;28;25065;-68
2021/09/29 06:11:59;;;;;;;;;;;14.60;99.90;;;;;;5008798;28;25071;-68
2021/09/29 06:14:51;;;;;;;;;;;14.60;99.90;;;;;;5011951;28;25105;-68
2021/09/29 06:17:43;;;;;;;;;;;14.60;99.90;;;;;;5013111;28;25080;-69
2021/09/29 06:20:33;;;;;;;;;;;14.60;99.90;;;;;;5014238;28;25070;-67
2021/09/29 06:23:22;;;;;;;;;;;14.60;99.90;;;;;;5013871;28;25077;-69
2021/09/29 06:26:10;;;;;;;;;;;14.60;99.90;;;;;;5013041;28;25138;-72
2021/09/29 06:29:00;;;;;;;;;;;14.60;99.90;;;;;;5010830;28;25173;-68
2021/09/29 06:31:48;;;;;;;;;;;14.70;99.90;;;;;;5011705;28;25066;-68
2021/09/29 06:34:39;;;;;;;;;;;14.70;99.90;;;;;;5006691;28;25066;-68
2021/09/29 06:37:27;;;;;;;;;;;14.70;99.90;;;;;;5007332;28;25127;-68
2021/09/29 06:40:18;;;;;;;;;;;14.70;99.90;;;;;;5005244;28;25098;-69
2021/09/29 06:43:07;;;;;;;;;;;14.70;99.90;;;;;;5005861;28;25053;-68
2021/09/29 06:45:56;;;;;;;;;;;14.70;99.90;;;;;;5007065;28;25053;-68
2021/09/29 06:48:45;;;;;;;;;;;14.80;99.90;;;;;;5006619;28;25104;-68
2021/09/29 06:51:35;;;;;;;;;;;14.80;99.90;;;;;;5005224;28;25081;-68
2021/09/29 06:54:24;;;;;;;;;;;14.80;99.90;;;;;;5006255;28;25067;-69
2021/09/29 06:57:12;;;;;;;;;;;14.80;99.90;;;;;;5018675;28;27192;-69
2021/09/29 07:00:01;;;;;;;;;;;14.80;99.90;;;;;;5006022;28;25112;-69
2021/09/29 07:02:50;;;;;;;;;;;14.90;99.90;;;;;;5019418;28;25103;-68
2021/09/29 07:05:39;;;;;;;;;;;14.90;99.90;;;;;;5002696;28;25131;-69
2021/09/29 07:08:29;;;;;;;;;;;15.00;99.90;;;;;;5008900;28;25084;-71
2021/09/29 07:11:18;;;;;;;;;;;15.10;99.90;;;;;;5012337;28;25059;-68
2021/09/29 07:14:06;;;;;;;;;;;15.20;99.90;;;;;;5016751;28;25137;-68
2021/09/29 07:16:58;;;;;;;;;;;15.30;99.90;;;;;;5014662;28;25110;-69
2021/09/29 07:19:52;;;;;;;;;;;15.40;99.90;;;;;;5013209;28;25106;-68
2021/09/29 07:22:42;;;;;;;;;;;15.50;99.90;;;;;;5014274;28;25098;-69
2021/09/29 07:25:31;;;;;;;;;;;15.70;99.90;;;;;;5023428;28;25142;-68
2021/09/29 07:28:21;;;;;;;;;;;15.70;99.90;;;;;;5011023;28;26914;-68
2021/09/29 07:31:09;;;;;;;;;;;15.70;99.90;;;;;;5012508;28;25096;-68
2021/09/29 07:33:58;;;;;;;;;;;15.70;99.90;;;;;;5012084;28;25134;-68
2021/09/29 07:40:00;;;;;;;;;;;15.70;99.90;;;;;;5010801;28;25058;-69
2021/09/29 07:42:51;;;;;;;;;;;15.70;99.90;;;;;;5013241;28;25066;-69
2021/09/29 07:45:41;;;;;;;;;;;15.70;99.90;;;;;;5009623;28;25086;-69
2021/09/29 07:48:31;;;;;;;;;;;15.70;99.90;;;;;;5012704;28;25101;-68
2021/09/29 07:51:19;;;;;;;;;;;15.70;99.90;;;;;;5012308;28;25144;-69
2021/09/29 07:54:09;;;;;;;;;;;15.70;99.90;;;;;;5010001;28;25066;-71
2021/09/29 07:56:57;;;;;;;;;;;15.70;99.90;;;;;;5011616;28;25061;-68
2021/09/29 07:59:46;;;;;;;;;;;15.70;99.90;;;;;;5013917;28;25070;-69
2021/09/29 08:03:00;;;;;;;;;;;15.70;99.90;;;;;;5009289;28;25151;-69
2021/09/29 08:05:52;;;;;;;;;;;15.80;99.90;;;;;;5011480;28;25141;-69
2021/09/29 08:08:40;;;;;;;;;;;15.80;99.90;;;;;;5022495;28;25140;-69
2021/09/29 08:11:30;;;;;;;;;;;15.80;99.90;;;;;;5013112;28;25064;-70
2021/09/29 08:14:19;;;;;;;;;;;15.90;99.90;;;;;;5027430;28;25076;-69
2021/09/29 08:17:09;;;;;;;;;;;16.00;99.90;;;;;;5028636;28;25079;-69
2021/09/29 08:19:58;;;;;;;;;;;16.10;99.90;;;;;;5013988;28;25060;-68
2021/09/29 08:22:52;;;;;;;;;;;16.20;99.90;;;;;;5011048;28;25094;-68
2021/09/29 08:28:50;;;;;;;;;;;16.30;99.90;;;;;;5009902;28;25058;-67
2021/09/29 08:32:08;;;;;;;;;;;16.40;99.90;;;;;;5012978;28;25060;-68
2021/09/29 08:35:06;;;;;;;;;;;16.60;99.90;;;;;;5010586;28;25128;-69
2021/09/29 08:38:00;;;;;;;;;;;16.60;99.90;;;;;;5012186;28;25085;-69
2021/09/29 08:40:55;;;;;;;;;;;16.70;99.90;;;;;;5014694;28;25110;-69
2021/09/29 08:43:47;;;;;;;;;;;16.70;99.90;;;;;;5013583;28;25091;-69
2021/09/29 08:46:48;;;;;;;;;;;16.70;99.90;;;;;;5010189;28;25118;-71
2021/09/29 08:49:46;;;;;;;;;;;16.60;99.90;;;;;;5010814;28;25066;-70
2021/09/29 08:52:52;;;;;;;;;;;16.60;99.90;;;;;;5014207;28;25114;-68
2021/09/29 09:17:54;;;;;;;;;;;17.40;99.90;;;;;;5090856;27;2328514;-66
2021/09/29 09:20:46;;;;;;;;;;;17.50;99.90;;;;;;5137715;27;25076;-69
2021/09/29 09:23:35;;;;;;;;;;;17.60;99.90;;;;;;5149919;27;25064;-69
2021/09/29 09:26:25;;;;;;;;;;;17.70;99.90;;;;;;5141506;27;25070;-68
2021/09/29 09:29:14;;;;;;;;;;;17.80;99.90;;;;;;5140908;27;25081;-70
2021/09/29 09:32:08;;;;;;;;;;;17.90;99.90;;;;;;5143313;27;25094;-69
2021/09/29 09:35:02;;;;;;;;;;;18.10;99.90;;;;;;5162135;27;25074;-69
2021/09/29 09:37:55;;;;;;;;;;;18.30;99.90;;;;;;5155058;27;25058;-70
2021/09/29 09:40:44;;;;;;;;;;;18.30;99.90;;;;;;5168574;27;25135;-69
2021/09/29 09:43:33;;;;;;;;;;;18.50;99.90;;;;;;5166711;27;25106;-70
2021/09/29 09:46:23;;;;;;;;;;;18.60;99.90;;;;;;5152943;27;25057;-69
2021/09/29 09:49:12;;;;;;;;;;;18.60;99.90;;;;;;5148706;27;25080;-69
2021/09/29 09:52:04;;;;;;;;;;;18.50;99.90;;;;;;5133398;27;25058;-69
2021/09/29 09:54:52;;;;;;;;;;;18.60;99.90;;;;;;5167958;27;25055;-69
2021/09/29 09:57:42;;;;;;;;;;;18.60;99.90;;;;;;5151616;27;25085;-70
2021/09/29 10:00:33;;;;;;;;;;;18.70;99.90;;;;;;5161382;27;25081;-69
2021/09/29 10:03:26;;;;;;;;;;;18.70;99.90;;;;;;5139796;27;25085;-70
2021/09/29 10:06:16;;;;;;;;;;;18.70;99.90;;;;;;5147780;27;25060;-70
2021/09/29 10:09:09;;;;;;;;;;;18.80;99.90;;;;;;5147217;27;25068;-69
2021/09/29 10:12:11;;;;;;;;;;;18.90;99.90;;;;;;5161629;27;25125;-66
2021/09/29 10:27:42;;;;;;;;;;;19.00;99.90;;;;;;5128060;27;25144;-68
2021/09/29 10:30:34;;;;;;;;;;;18.90;99.20;;;;;;5119224;27;25131;-68
2021/09/29 10:33:24;;;;;;;;;;;18.70;99.90;;;;;;5130301;27;25062;-68
2021/09/29 10:36:41;;;;;;;;;;;18.70;99.10;;;;;;5125951;27;25062;-71
2021/09/29 10:42:53;;;;;;;;;;;18.40;99.90;;;;;;5115893;28;25067;-68
2021/09/29 10:46:00;;;;;;;;;;;18.30;99.90;;;;;;5121834;27;25059;-68
2021/09/29 10:49:05;;;;;;;;;;;18.20;99.90;;;;;;5116594;28;25070;-70
2021/09/29 10:52:29;;;;;;;;;;;18.20;99.90;;;;;;5109193;28;25066;-69
2021/09/29 11:27:35;;;;;;;;;;;18.50;99.90;;;;;;5091172;28;25165;-68
2021/09/29 11:30:33;;;;;;;;;;;18.60;99.90;;;;;;5105523;28;25077;-68
2021/09/29 11:33:29;;;;;;;;;;;18.70;99.90;;;;;;5082895;28;25068;-69
2021/09/29 11:36:29;;;;;;;;;;;18.80;99.10;;;;;;5083105;28;25060;-68
2021/09/29 11:39:47;;;;;;;;;;;18.90;99.10;;;;;;5097606;28;25093;-67
2021/09/29 12:08:14;;;;;;;;;;;19.20;96.70;;;;;;5090447;28;25110;-68
2021/09/29 12:11:16;;;;;;;;;;;19.00;98.10;;;;;;5095570;28;25072;-68
2021/09/29 12:14:15;;;;;;;;;;;19.00;96.90;;;;;;5090045;28;25064;-68
2021/09/29 12:17:04;;;;;;;;;;;18.90;97.30;;;;;;5104526;27;25077;-68
2021/09/29 12:19:57;;;;;;;;;;;18.80;97.70;;;;;;5109092;27;25142;-68
2021/09/29 12:22:48;;;;;;;;;;;18.80;97.30;;;;;;5098432;28;25056;-71
2021/09/29 12:25:42;;;;;;;;;;;18.90;97.00;;;;;;5118984;27;25071;-68
2021/09/29 12:28:45;;;;;;;;;;;18.90;97.30;;;;;;5115081;27;25074;-68
2021/09/29 12:31:52;;;;;;;;;;;18.90;97.30;;;;;;5110421;27;25141;-68
2021/09/29 12:34:49;;;;;;;;;;;18.80;97.40;;;;;;5103627;27;25072;-68
2021/09/29 12:37:39;;;;;;;;;;;18.80;97.40;;;;;;5096393;28;25055;-69
2021/09/29 12:40:30;;;;;;;;;;;18.80;98.50;;;;;;5117601;27;25068;-68
2021/09/29 12:43:19;;;;;;;;;;;18.80;98.80;;;;;;5103867;28;25142;-68
2021/09/29 12:46:14;;;;;;;;;;;18.90;98.50;;;;;;5106603;27;20409;-68
2021/09/29 12:49:10;;;;;;;;;;;19.00;98.30;;;;;;5118324;27;20414;-68
2021/09/29 12:52:06;;;;;;;;;;;19.00;98.70;;;;;;5117391;27;25100;-68
2021/09/29 12:54:57;;;;;;;;;;;19.10;98.50;;;;;;5112190;28;20392;-68
2021/09/29 12:58:04;;;;;;;;;;;19.20;97.50;;;;;;5123152;27;25092;-68
2021/09/29 13:00:53;;;;;;;;;;;19.20;96.90;;;;;;5117839;27;20406;-67
2021/09/29 13:03:42;;;;;;;;;;;19.20;96.70;;;;;;5112358;28;20394;-68
2021/09/29 13:06:32;;;;;;;;;;;19.30;96.50;;;;;;5110474;28;20456;-70
2021/09/29 13:09:21;;;;;;;;;;;19.30;96.30;;;;;;5113343;27;20479;-68
2021/09/29 13:12:10;;;;;;;;;;;19.20;96.60;;;;;;5111416;28;20955;-68
2021/09/29 13:14:59;;;;;;;;;;;19.10;96.80;;;;;;5104323;28;20398;-67
2021/09/29 13:17:50;;;;;;;;;;;19.10;97.00;;;;;;5113010;28;20739;-68
2021/09/29 13:20:40;;;;;;;;;;;19.00;97.20;;;;;;5110874;28;25087;-68
2021/09/29 13:23:33;;;;;;;;;;;19.10;97.10;;;;;;5132170;27;20957;-68
2021/09/29 13:26:35;;;;;;;;;;;19.10;97.20;;;;;;5110768;28;20384;-68
2021/09/29 13:39:10;;;;;;;;;;;19.20;97.60;;;;;;5142069;27;20398;-68
2021/09/29 13:42:00;;;;;;;;;;;19.30;98.30;;;;;;5134269;27;20219;-68
2021/09/29 13:44:49;;;;;;;;;;;19.30;97.60;;;;;;5133506;27;25075;-68
2021/09/29 13:47:38;;;;;;;;;;;19.20;97.40;;;;;;5133268;27;20433;-68
2021/09/29 13:50:30;;;;;;;;;;;19.20;97.40;;;;;;5130588;27;20438;-67
2021/09/29 13:53:18;;;;;;;;;;;19.30;97.80;;;;;;5130553;27;20794;-66
2021/09/29 13:56:15;;;;;;;;;;;19.30;98.00;;;;;;5124625;27;25137;-67
2021/09/29 13:59:23;;;;;;;;;;;19.40;97.60;;;;;;5137359;27;25116;-67
2021/09/29 14:30:17;;;;;;;;;;;19.60;97.00;;;;;;5124901;27;20210;-67
2021/09/29 14:33:17;;;;;;;;;;;19.50;96.90;;;;;;5143096;27;25084;-67
2021/09/29 14:36:17;;;;;;;;;;;19.40;96.60;;;;;;5125126;27;20406;-72
2021/09/29 14:39:06;;;;;;;;;;;19.40;96.80;;;;;;5143268;27;25118;-67
2021/09/29 14:41:56;;;;;;;;;;;19.30;97.00;;;;;;5120555;27;25224;-70
2021/09/29 14:44:46;;;;;;;;;;;19.20;97.20;;;;;;5145378;27;20413;-68
2021/09/29 14:47:35;;;;;;;;;;;19.10;97.30;;;;;;5133447;27;25089;-67
2021/09/29 14:50:27;;;;;;;;;;;19.20;97.20;;;;;;5143892;27;20417;-67
2021/09/29 14:53:17;;;;;;;;;;;19.10;97.60;;;;;;5142198;27;25097;-67
2021/09/29 14:56:16;;;;;;;;;;;19.10;97.30;;;;;;5140879;27;25178;-66
2021/09/29 15:04:14;;;;;;;;;;;19.00;97.60;;;;;;5148198;27;20431;-69
2021/09/29 15:14:29;;;;;;;;;;;18.40;99.90;;;;;;5141548;27;20476;-69
2021/09/29 15:17:46;;;;;;;;;;;17.90;99.90;;;;;;5069216;28;20444;-69
2021/09/29 15:20:59;;;;;;;;;;;17.50;99.90;;;;;;5061325;28;20507;-69
2021/09/29 15:30:23;;;;;;;;;;;16.90;99.90;;;;;;5064864;28;20894;-69
2021/09/29 15:47:36;;;;;;;;;;;16.60;99.90;;;;;;5069210;28;20271;-69
2021/09/29 15:50:55;;;;;;;;;;;16.60;99.90;;;;;;5059608;28;19943;-68
2021/09/29 15:57:25;;;;;;;;;;;16.30;99.90;;;;;;5055017;28;19920;-68
2021/09/29 16:00:40;;;;;;;99.60;91.93;;;16.20;99.90;;;;;;5066160;28;20861;-68
2021/09/29 16:03:39;;;;;;;41.63;37.23;;;16.20;99.90;;;;;;5070961;28;20423;-68
2021/09/29 16:06:45;;;;;;;42.25;37.30;;;16.10;99.90;;;;;;5076028;28;20395;-68
2021/09/29 16:22:39;;;;;;;;;;;15.80;99.90;;;;;;5029857;28;20440;-71
2021/09/29 16:31:43;;;;;;;53.35;40.55;;;15.70;99.90;;;;;;5059057;28;20408;-69
2021/09/29 16:34:34;;;;;;;54.10;40.15;;;15.70;99.90;;;;;;5077423;28;20508;-69
2021/09/29 16:37:23;;;;;;;52.63;39.90;;;15.60;99.90;;;;;;5088994;28;20432;-69
2021/09/29 16:40:14;;;;;;;56.50;41.30;;;15.60;99.90;;;;;;5070857;28;20765;-69
2021/09/29 16:43:02;;;;;;;;;;;15.60;99.90;;;;;;5078044;28;20397;-69
2021/09/29 16:45:54;;;;;;;;;;;15.60;99.90;;;;;;5074130;28;20400;-69
2021/09/29 16:48:45;;;;;;;66.90;57.60;;;15.60;99.90;;;;;;5083381;28;20406;-68
2021/09/29 16:51:40;;;;;;;54.58;40.55;;;15.50;99.90;;;;;;5066402;28;20510;-68
2021/09/29 16:54:29;;;;;;;50.93;38.90;;;15.50;99.90;;;;;;5080036;28;20403;-68
2021/09/29 16:57:25;;;;;;;48.55;38.72;;;15.50;99.90;;;;;;5078247;28;20809;-70
2021/09/29 17:00:22;;;;;;;55.53;40.97;;;15.50;99.90;;;;;;5060590;28;20483;-67
2021/09/29 17:03:12;;;;;;;47.20;37.85;;;15.50;99.90;;;;;;5068858;28;20920;-67
2021/09/29 17:06:03;;;;;;;40.37;34.80;;;15.40;99.90;;;;;;5078938;28;20833;-67
2021/09/29 17:09:06;;;;;;;42.65;36.45;;;15.50;99.90;;;;;;5076952;28;20476;-66
2021/09/29 17:11:55;;;;;;;52.28;39.50;;;15.40;99.90;;;;;;5081524;28;20387;-65
2021/09/29 17:14:44;;;;;;;53.08;39.00;;;15.40;99.90;;;;;;5079610;28;20473;-66
2021/09/29 17:17:35;;;;;;;55.37;40.97;;;15.30;99.90;;;;;;5053587;28;20892;-66
2021/09/29 17:20:24;;;;;;;51.30;38.80;;;15.30;99.90;;;;;;5068390;28;20887;-65
2021/09/29 17:23:14;;;;;;;;;;;15.30;99.90;;;;;;5071301;28;20777;-67
2021/09/29 17:26:11;;;;;;;;;;;15.30;99.90;;;;;;5072969;28;20890;-66
2021/09/29 17:29:50;;;;;;;;;;;15.30;99.90;;;;;;5065111;28;20832;-67
2021/09/29 17:32:51;;;;;;;;;;;15.20;99.90;;;;;;5083896;28;20055;-67
2021/09/29 17:35:48;;;;;;;;;;;15.20;99.90;;;;;;5080227;28;20336;-67
2021/09/29 17:52:11;;;;;;;;;;;15.20;99.90;;;;;;5109076;28;19920;-67
2021/09/29 17:54:33;;;;;;;;;;;15.10;99.90;;;;;;5101441;28;19927;-67
2021/09/29 17:57:23;;;;;;;;;;;15.10;99.90;;;;;;5096235;28;20383;-67
2021/09/29 18:00:12;;;;;;;;;;;15.10;99.90;;;;;;5104892;28;19931;-68
2021/09/29 18:03:04;;;;;;;;;;;15.10;99.90;;;;;;5116766;28;19927;-66
2021/09/29 18:05:58;;;;;;;;;;;15.10;99.90;;;;;;5110070;28;20069;-66
2021/09/29 18:08:47;;;;;;;;;;;15.00;99.90;;;;;;5113278;28;19927;-70
2021/09/29 18:11:37;;;;;;;;;;;15.00;99.90;;;;;;5113479;28;19920;-67
2021/09/29 18:14:28;;;;;;;;;;;15.00;99.90;;;;;;5117024;28;19919;-69
2021/09/29 18:17:16;;;;;;;;;;;15.00;99.90;;;;;;5097503;28;19923;-68
2021/09/29 18:20:07;;;;;;;;;;;15.00;99.90;;;;;;5114078;28;20698;-66
2021/09/29 18:22:55;;;;;;;;;;;15.00;99.90;;;;;;5105608;28;20010;-68
2021/09/29 18:25:44;;;;;;;;;;;14.90;99.90;;;;;;5110171;28;20025;-69
2021/09/29 18:28:35;;;;;;;;;;;14.90;99.90;;;;;;5114593;28;20329;-69
2021/09/29 18:31:26;;;;;;;;;;;14.90;99.90;;;;;;5089251;28;19919;-70
2021/09/29 18:34:16;;;;;;;;;;;14.80;99.90;;;;;;5113856;28;19927;-68
2021/09/29 18:37:07;;;;;;;;;;;14.80;99.90;;;;;;5090096;28;19963;-68
2021/09/29 18:39:56;;;;;;;;;;;14.80;99.90;;;;;;5097195;28;19919;-68
2021/09/29 18:42:45;;;;;;;;;;;14.80;99.90;;;;;;5107599;28;20365;-69
2021/09/29 18:45:35;;;;;;;;;;;14.70;99.90;;;;;;5091853;28;20406;-69
2021/09/29 18:48:25;;;;;;;29.90;28.50;;;14.80;99.90;;;;;;5093499;28;20445;-68
2021/09/29 18:51:14;;;;;;;36.30;32.70;;;14.80;99.90;;;;;;5077800;28;20431;-68
2021/09/29 18:54:08;;;;;;;34.50;31.65;;;14.80;99.90;;;;;;5071550;28;20400;-68
2021/09/29 19:09:37;;;;;;;;;;;14.60;99.90;;;;;;5078951;28;20081;-68
2021/09/29 19:12:33;;;;;;;;;;;14.60;99.90;;;;;;5077842;28;19959;-68
2021/09/29 19:18:37;;;;;;;31.80;29.65;;;14.60;99.90;;;;;;5064014;28;20423;-69
2021/09/29 19:21:27;;;;;;;;;;;14.50;99.90;;;;;;5073130;28;20441;-68
2021/09/29 19:24:41;;;;;;;42.20;37.70;;;14.50;99.90;;;;;;5078685;28;20920;-69
2021/09/29 19:27:58;;;;;;;;;;;14.40;99.90;;;;;;5067565;28;20386;-73
2021/09/29 19:30:47;;;;;;;;;;;14.40;99.90;;;;;;5055828;28;19921;-68
2021/09/29 19:33:39;;;;;;;26.00;24.60;;;14.40;99.90;;;;;;5063983;28;20421;-68
2021/09/29 19:36:29;;;;;;;35.05;32.45;;;14.30;99.90;;;;;;5067522;28;20522;-69
2021/09/29 19:39:18;;;;;;;30.45;28.35;;;14.30;99.90;;;;;;5057632;28;20405;-67
2021/09/29 20:10:09;;;;;;;;;;;14.40;99.90;;;;;;5081395;28;20402;-69
2021/09/29 20:13:10;;;;;;;;;;;14.40;99.90;;;;;;5077605;28;20442;-67
2021/09/29 20:16:00;;;;;;;;;;;14.30;99.90;;;;;;5082866;28;20398;-66
2021/09/29 20:18:50;;;;;;;;;;;14.30;99.90;;;;;;5090464;28;20431;-68
2021/09/29 20:21:39;;;;;;;;;;;14.40;99.90;;;;;;5103542;28;20355;-69
2021/09/29 20:24:31;;;;;;;;;;;14.30;99.90;;;;;;5101188;28;20383;-69
2021/09/29 20:27:20;;;;;;;;;;;14.30;99.90;;;;;;5105563;28;20787;-68
2021/09/29 20:30:10;;;;;;;;;;;14.30;99.90;;;;;;5093742;28;21001;-67
2021/09/29 20:33:00;;;;;;;;;;;14.30;99.90;;;;;;5073109;28;20742;-69
2021/09/29 20:45:19;;;;;;;;;;;14.20;99.90;;;;;;5046499;28;19976;-67
2021/09/29 20:48:09;;;;;;;;;;;14.20;99.90;;;;;;5079556;28;19920;-69
2021/09/29 20:50:58;;;;;;;;;;;14.20;99.90;;;;;;5076648;28;19927;-69
2021/09/29 20:53:48;;;;;;;;;;;14.20;99.90;;;;;;5093343;28;20051;-70
2021/09/29 20:56:37;;;;;;;;;;;14.20;99.90;;;;;;5093053;28;20879;-69